Time;durP1;ratioP1;P1;durP2;ratioP2;P2;SDS_P1;SDS_P2;PMS_P1;PMS_P2;Temp;Humidity;BMP_temperature;BMP_pressure;BME280_temperature;BME280_humidity;BME280_pressure;Samples;Min_cycle;Max_cycle;Signal;HPM_P1;HPM_P2
2021/05/23 00:00:23;;;;;;;3.08;1.25;;;;;;;9.67;100.00;95406.28;1042365;28;20021;-71
2021/05/23 00:00:53;;;;;;;2.35;1.40;;;;;;;9.67;100.00;95401.06;1037937;28;20075;-71
2021/05/23 00:01:24;;;;;;;2.28;1.30;;;;;;;9.67;100.00;95395.81;1045261;28;20325;-71
2021/05/23 00:01:56;;;;;;;6.32;1.45;;;;;;;9.67;100.00;95401.84;1045090;28;20017;-70
2021/05/23 00:02:26;;;;;;;5.68;1.67;;;;;;;9.63;100.00;95394.78;1043390;28;20064;-70
2021/05/23 00:02:59;;;;;;;5.10;1.60;;;;;;;9.57;100.00;95388.75;1034753;28;20320;-69
2021/05/23 00:03:29;;;;;;;3.85;1.42;;;;;;;9.64;100.00;95398.97;1042903;28;20061;-71
2021/05/23 00:04:00;;;;;;;3.03;1.63;;;;;;;9.57;100.00;95391.38;1034878;28;20276;-70
2021/05/23 00:04:33;;;;;;;2.55;1.23;;;;;;;9.64;100.00;95406.81;1030773;28;20675;-70
2021/05/23 00:05:05;;;;;;;3.95;1.63;;;;;;;9.61;100.00;95408.13;1035115;28;20058;-70
2021/05/23 00:05:39;;;;;;;3.17;1.30;;;;;;;9.62;100.00;95407.09;1033797;28;20269;-69
2021/05/23 00:06:10;;;;;;;3.67;1.20;;;;;;;9.54;100.00;95391.91;1038053;28;20272;-68
2021/05/23 00:06:41;;;;;;;5.53;1.70;;;;;;;9.60;100.00;95403.16;1038764;28;20283;-69
2021/05/23 00:07:12;;;;;;;5.32;1.50;;;;;;;9.57;100.00;95409.72;1036126;28;20284;-70
2021/05/23 00:08:05;;;;;;;3.55;1.85;;;;;;;9.52;100.00;95404.47;1034476;28;20302;-70
2021/05/23 00:08:35;;;;;;;3.08;1.38;;;;;;;9.51;100.00;95402.91;1041831;28;20088;-69
2021/05/23 00:09:06;;;;;;;3.53;1.35;;;;;;;9.50;100.00;95411.81;1038554;28;21011;-70
2021/05/23 00:09:36;;;;;;;2.03;1.38;;;;;;;9.49;100.00;95412.88;1042854;28;20025;-68
2021/05/23 00:10:08;;;;;;;4.72;1.58;;;;;;;9.50;100.00;95418.88;1038618;28;20061;-69
2021/05/23 00:11:06;;;;;;;3.40;1.42;;;;;;;9.46;100.00;95426.50;1044099;28;20040;-69
2021/05/23 00:11:37;;;;;;;3.97;1.13;;;;;;;9.48;100.00;95418.34;1040207;28;20306;-70
2021/05/23 00:12:13;;;;;;;5.18;1.27;;;;;;;9.47;100.00;95438.53;1046780;28;20274;-69
2021/05/23 00:12:45;;;;;;;3.55;1.48;;;;;;;9.47;100.00;95435.91;1046942;28;20025;-69
2021/05/23 00:13:17;;;;;;;2.47;1.30;;;;;;;9.48;100.00;95439.31;1042772;28;20270;-71
2021/05/23 00:13:48;;;;;;;2.30;1.10;;;;;;;9.45;100.00;95440.59;1043285;28;20367;-68
2021/05/23 00:14:19;;;;;;;3.00;1.02;;;;;;;9.49;100.00;95440.88;1039429;28;20835;-68
2021/05/23 00:14:49;;;;;;;3.47;1.17;;;;;;;9.49;100.00;95439.06;1043064;28;20311;-68
2021/05/23 00:15:47;;;;;;;2.42;1.15;;;;;;;9.49;100.00;95431.19;1038490;28;20925;-68
2021/05/23 00:16:22;;;;;;;2.13;1.30;;;;;;;9.50;100.00;95438.00;1039017;28;20556;-68
2021/05/23 00:16:53;;;;;;;8.05;1.70;;;;;;;9.43;100.00;95427.00;1043008;28;20577;-69
2021/05/23 00:17:23;;;;;;;3.20;1.83;;;;;;;9.51;100.00;95429.09;1042694;28;20280;-68
2021/05/23 00:17:54;;;;;;;4.95;1.42;;;;;;;9.52;100.00;95430.66;1038820;28;20033;-68
2021/05/23 00:18:24;;;;;;;4.95;1.40;;;;;;;9.52;100.00;95430.66;1038645;28;20025;-68
2021/05/23 00:18:58;;;;;;;2.65;1.13;;;;;;;9.51;100.00;95434.31;1034491;28;20025;-70
2021/05/23 00:19:28;;;;;;;3.33;1.50;;;;;;;9.50;100.00;95432.78;1040702;28;20021;-70
2021/05/23 00:19:59;;;;;;;3.20;1.33;;;;;;;9.49;100.00;95436.44;1042748;28;20326;-68
2021/05/23 00:20:29;;;;;;;1.92;1.20;;;;;;;9.51;100.00;95439.56;1038854;28;20040;-70
2021/05/23 00:20:59;;;;;;;2.83;1.35;;;;;;;9.54;100.00;95444.28;1045642;28;20078;-69
2021/05/23 00:21:30;;;;;;;1.85;1.08;;;;;;;9.55;100.00;95443.22;1034518;28;20057;-71
2021/05/23 00:22:00;;;;;;;2.60;1.40;;;;;;;9.35;100.00;95406.56;1042743;28;20049;-69
2021/05/23 00:22:31;;;;;;;2.30;1.50;;;;;;;9.56;100.00;95439.56;1038605;28;20116;-71
2021/05/23 00:23:01;;;;;;;3.67;1.15;;;;;;;9.56;100.00;95444.03;1038556;28;20040;-72
2021/05/23 00:23:32;;;;;;;4.75;1.35;;;;;;;9.53;100.00;95447.97;1051002;28;20028;-70
2021/05/23 00:24:03;;;;;;;3.40;1.63;;;;;;;9.53;100.00;95447.97;1051189;28;20028;-70
2021/05/23 00:24:34;;;;;;;3.30;1.13;;;;;;;9.53;100.00;95455.81;1046595;28;20032;-71
2021/05/23 00:25:05;;;;;;;2.95;1.08;;;;;;;9.55;100.00;95448.47;1042585;28;20276;-69
2021/05/23 00:25:36;;;;;;;4.03;1.30;;;;;;;9.55;100.00;95451.09;1038519;28;20106;-70
2021/05/23 00:26:06;;;;;;;3.60;1.13;;;;;;;9.53;100.00;95447.19;1038268;28;20049;-69
2021/05/23 00:26:37;;;;;;;2.35;1.23;;;;;;;9.56;100.00;95454.50;1035756;28;20034;-69
2021/05/23 00:27:07;;;;;;;5.28;1.48;;;;;;;9.56;100.00;95452.69;1038537;28;20037;-67
2021/05/23 00:27:38;;;;;;;2.30;1.08;;;;;;;9.56;100.00;95452.69;1041430;28;20035;-70
2021/05/23 00:28:09;;;;;;;3.58;1.27;;;;;;;9.52;100.00;95440.34;1042049;28;20033;-70
2021/05/23 00:28:40;;;;;;;3.42;1.33;;;;;;;9.56;100.00;95444.81;1055330;28;20047;-70
2021/05/23 00:29:11;;;;;;;4.13;1.30;;;;;;;9.54;100.00;95440.88;1050928;28;20062;-71
2021/05/23 00:29:41;;;;;;;3.35;1.35;;;;;;;9.58;100.00;95447.94;1044899;28;20501;-71
2021/05/23 00:30:12;;;;;;;5.05;1.27;;;;;;;9.59;100.00;95441.69;1042653;28;20029;-68
2021/05/23 00:30:43;;;;;;;3.05;0.90;;;;;;;9.54;100.00;95440.88;1042757;28;20502;-70
2021/05/23 00:31:13;;;;;;;4.80;1.20;;;;;;;9.56;100.00;95450.06;1046595;28;20264;-69
2021/05/23 00:31:44;;;;;;;2.95;1.13;;;;;;;9.49;100.00;95428.59;1047124;28;20062;-70
2021/05/23 00:32:14;;;;;;;3.15;1.20;;;;;;;9.55;100.00;95443.22;1042899;28;20113;-70
2021/05/23 00:32:45;;;;;;;2.63;1.20;;;;;;;9.56;100.00;95444.81;1042571;28;20036;-70
2021/05/23 00:33:15;;;;;;;2.03;1.00;;;;;;;9.51;100.00;95436.94;1038573;28;20151;-69
2021/05/23 00:33:46;;;;;;;4.57;0.95;;;;;;;9.58;100.00;95434.84;1038661;28;20666;-68
2021/05/23 00:34:16;;;;;;;5.55;1.52;;;;;;;9.55;100.00;95432.75;1042737;28;20107;-70
2021/05/23 00:34:49;;;;;;;1.70;0.95;;;;;;;9.56;100.00;95431.72;1033161;28;20048;-68
2021/05/23 00:35:20;;;;;;;5.13;1.13;;;;;;;9.58;100.00;95439.31;1034373;28;20089;-69
2021/05/23 00:35:50;;;;;;;4.95;1.67;;;;;;;9.53;100.00;95434.88;1034119;28;20407;-68
2021/05/23 00:36:21;;;;;;;1.75;0.90;;;;;;;9.48;100.00;95436.69;1033767;28;20495;-68
2021/05/23 00:36:53;;;;;;;8.98;1.95;;;;;;;9.52;100.00;95435.09;1035025;28;20435;-70
2021/05/23 00:37:26;;;;;;;2.85;1.10;;;;;;;9.44;100.00;95425.94;1031228;28;20484;-71
2021/05/23 00:37:57;;;;;;;3.05;1.10;;;;;;;9.49;100.00;95440.88;1035248;28;20303;-70
2021/05/23 00:38:27;;;;;;;2.17;1.25;;;;;;;9.47;100.00;95438.53;1039711;28;20900;-69
2021/05/23 00:38:58;;;;;;;9.13;1.67;;;;;;;9.46;100.00;95439.59;1035906;28;20091;-68
2021/05/23 00:39:29;;;;;;;2.95;1.38;;;;;;;9.44;100.00;95439.84;1036799;28;20853;-68
2021/05/23 00:39:59;;;;;;;1.88;0.90;;;;;;;9.43;100.00;95434.88;1043224;28;20310;-68
2021/05/23 00:40:30;;;;;;;3.03;1.05;;;;;;;9.41;100.00;95435.13;1042179;28;20032;-71
2021/05/23 00:41:01;;;;;;;7.15;1.15;;;;;;;9.34;100.00;95423.34;1045971;28;20595;-70
2021/05/23 00:41:31;;;;;;;2.33;1.23;;;;;;;9.19;100.00;95406.59;1047244;28;20031;-70
2021/05/23 00:42:02;;;;;;;2.28;1.30;;;;;;;9.33;100.00;95427.78;1038124;28;20033;-70
2021/05/23 00:42:33;;;;;;;4.45;1.10;;;;;;;9.40;100.00;95432.78;1043676;28;20086;-69
2021/05/23 00:43:07;;;;;;;3.60;1.27;;;;;;;9.34;100.00;95429.34;1039549;28;20033;-69
2021/05/23 00:43:37;;;;;;;3.53;1.00;;;;;;;9.40;100.00;95438.00;1036425;28;20050;-70
2021/05/23 00:44:08;;;;;;;3.78;1.15;;;;;;;9.40;100.00;95438.00;1040101;28;20280;-69
2021/05/23 00:44:38;;;;;;;4.03;1.50;;;;;;;9.41;100.00;95439.56;1043358;28;20048;-69
2021/05/23 00:45:11;;;;;;;5.82;0.98;;;;;;;9.35;100.00;95430.13;1037826;28;20041;-71
2021/05/23 00:45:42;;;;;;;3.13;1.00;;;;;;;9.36;100.00;95436.97;1035060;28;20030;-67
2021/05/23 00:46:12;;;;;;;2.10;1.17;;;;;;;9.29;100.00;95426.75;1034716;28;20766;-70
2021/05/23 00:46:42;;;;;;;3.65;1.27;;;;;;;9.34;100.00;95439.06;1035600;28;20034;-67
2021/05/23 00:47:15;;;;;;;4.25;0.93;;;;;;;9.28;100.00;95422.53;1035380;28;20088;-70
2021/05/23 00:47:46;;;;;;;4.15;1.30;;;;;;;9.35;100.00;95435.38;1040549;28;20038;-71
2021/05/23 00:48:17;;;;;;;2.85;1.38;;;;;;;9.28;100.00;95421.75;1043917;28;20366;-70
2021/05/23 00:48:47;;;;;;;1.90;0.73;;;;;;;9.32;100.00;95431.47;1043551;28;20513;-69
2021/05/23 00:49:18;;;;;;;4.45;1.15;;;;;;;9.26;100.00;95416.81;1043650;28;20275;-70
2021/05/23 00:49:48;;;;;;;3.15;1.13;;;;;;;9.28;100.00;95424.38;1047681;28;20025;-69
2021/05/23 00:50:23;;;;;;;1.20;1.10;;;;;;;9.34;100.00;95433.81;1039391;28;20036;-69
2021/05/23 00:50:53;;;;;;;3.63;1.52;;;;;;;9.32;100.00;95430.66;1039792;28;20053;-70
2021/05/23 00:51:24;;;;;;;4.28;1.65;;;;;;;9.32;100.00;95425.41;1039495;28;20773;-70
2021/05/23 00:51:54;;;;;;;3.13;1.33;;;;;;;9.26;100.00;95421.25;1037355;28;20045;-70
2021/05/23 00:52:26;;;;;;;2.88;1.10;;;;;;;9.31;100.00;95429.88;1035957;28;20029;-67
2021/05/23 00:52:58;;;;;;;4.10;1.00;;;;;;;9.25;100.00;95420.44;1039371;28;20493;-71
2021/05/23 00:53:28;;;;;;;1.85;1.10;;;;;;;9.30;100.00;95422.28;1043624;28;20373;-69
2021/05/23 00:53:59;;;;;;;3.38;1.30;;;;;;;9.34;100.00;95428.56;1044674;28;20687;-70
2021/05/23 00:54:29;;;;;;;3.97;0.98;;;;;;;9.33;100.00;95427.00;1050030;28;20027;-70
2021/05/23 00:55:00;;;;;;;2.17;1.27;;;;;;;9.27;100.00;95417.59;1056348;28;20028;-70
2021/05/23 00:55:31;;;;;;;4.85;1.42;;;;;;;9.33;100.00;95422.56;1047801;28;20107;-70
2021/05/23 00:56:01;;;;;;;1.73;1.00;;;;;;;9.37;100.00;95422.81;1050061;28;20335;-69
2021/05/23 00:56:34;;;;;;;5.15;1.00;;;;;;;9.35;100.00;95425.69;1043593;28;20036;-70
2021/05/23 00:57:07;;;;;;;2.15;1.30;;;;;;;9.36;100.00;95426.50;1035754;28;20030;-70
2021/05/23 00:57:38;;;;;;;2.83;1.08;;;;;;;9.34;100.00;95428.56;1036087;28;20349;-71
2021/05/23 00:58:08;;;;;;;2.63;1.20;;;;;;;9.34;100.00;95428.56;1039038;28;20883;-71
2021/05/23 00:58:39;;;;;;;5.57;1.10;;;;;;;9.36;100.00;95431.72;1036569;28;20038;-70
2021/05/23 00:59:09;;;;;;;3.63;1.10;;;;;;;9.36;100.00;95431.72;1039586;28;20033;-70
2021/05/23 00:59:40;;;;;;;2.35;1.30;;;;;;;9.38;100.00;95433.03;1037592;28;20687;-70
2021/05/23 01:00:11;;;;;;;1.60;1.30;;;;;;;9.37;100.00;95430.69;1035552;28;20044;-71
2021/05/23 01:00:41;;;;;;;4.03;1.30;;;;;;;9.36;100.00;95434.34;1035505;28;20048;-70
2021/05/23 01:01:14;;;;;;;2.83;0.85;;;;;;;9.38;100.00;95440.09;1035426;28;20116;-70
2021/05/23 01:01:44;;;;;;;1.90;0.90;;;;;;;9.36;100.00;95436.97;1044353;28;20124;-70
2021/05/23 01:02:39;;;;;;;2.70;1.50;;;;;;;9.37;100.00;95430.69;1052539;28;20669;-70
2021/05/23 01:03:30;;;;;;;2.13;1.15;;;;;;;9.38;100.00;95440.09;1056533;27;20027;-69
2021/05/23 01:04:01;;;;;;;2.88;0.70;;;;;;;9.35;100.00;95441.38;1051862;28;20667;-69
2021/05/23 01:04:31;;;;;;;1.92;1.20;;;;;;;9.35;100.00;95430.13;1051673;28;20278;-70
2021/05/23 01:05:02;;;;;;;3.05;1.08;;;;;;;9.36;100.00;95434.34;1054904;28;20037;-70
2021/05/23 01:05:32;;;;;;;3.35;1.35;;;;;;;9.35;100.00;95435.38;1051919;28;20650;-70
2021/05/23 01:06:06;;;;;;;2.85;1.48;;;;;;;9.29;100.00;95426.75;1051189;28;20020;-69
2021/05/23 01:06:37;;;;;;;2.17;1.38;;;;;;;9.35;100.00;95440.63;1047222;28;20337;-70
2021/05/23 01:07:07;;;;;;;2.72;1.20;;;;;;;9.35;100.00;95440.63;1044183;28;20276;-71
2021/05/23 01:07:40;;;;;;;2.42;1.17;;;;;;;9.35;100.00;95438.00;1043522;28;20066;-70
2021/05/23 01:08:10;;;;;;;2.13;1.02;;;;;;;9.33;100.00;95433.03;1039010;28;20511;-70
2021/05/23 01:08:41;;;;;;;4.00;1.45;;;;;;;9.34;100.00;95436.44;1043536;28;20266;-70
2021/05/23 01:09:11;;;;;;;2.33;1.17;;;;;;;9.34;100.00;95439.06;1047743;28;20024;-70
2021/05/23 01:09:41;;;;;;;3.90;1.10;;;;;;;9.31;100.00;95436.94;1046055;28;20055;-69
2021/05/23 01:10:21;;;;;;;1.58;1.00;;;;;;;9.32;100.00;95436.72;1035394;28;20037;-70
2021/05/23 01:11:05;;;;;;;2.92;1.30;;;;;;;9.25;100.00;95427.53;1039306;28;20018;-69
2021/05/23 01:11:41;;;;;;;2.72;1.00;;;;;;;9.33;100.00;95437.50;1043345;28;20759;-70
2021/05/23 01:12:24;;;;;;;1.10;1.00;;;;;;;9.35;100.00;95438.78;1051465;28;20315;-70
2021/05/23 01:12:57;;;;;;;4.53;1.20;;;;;;;9.35;100.00;95438.00;1052133;28;20777;-69
2021/05/23 01:13:39;;;;;;;3.40;1.00;;;;;;;9.35;100.00;95438.00;1051547;28;20258;-70
2021/05/23 01:14:23;;;;;;;1.15;1.00;;;;;;;9.38;100.00;95434.84;1051695;28;20301;-68
2021/05/23 01:14:56;;;;;;;3.97;1.15;;;;;;;9.38;100.00;95434.84;1044541;28;20294;-65
2021/05/23 01:15:31;;;;;;;3.08;1.00;;;;;;;9.39;100.00;95441.69;1043511;28;20294;-70
2021/05/23 01:16:11;;;;;;;2.50;1.20;;;;;;;9.39;100.00;95439.06;1037289;28;20979;-68
2021/05/23 01:16:44;;;;;;;5.35;1.23;;;;;;;9.40;100.00;95441.41;1036953;28;20731;-72
2021/05/23 01:17:15;;;;;;;5.35;1.45;;;;;;;9.40;100.00;95428.31;1036496;28;20499;-70
2021/05/23 01:17:46;;;;;;;3.88;0.95;;;;;;;9.33;100.00;95424.41;1042446;28;20265;-69
2021/05/23 01:18:23;;;;;;;3.13;1.08;;;;;;;9.37;100.00;95433.28;1039582;28;20515;-69
2021/05/23 01:19:01;;;;;;;1.63;0.75;;;;;;;9.35;100.00;95433.53;1046864;28;20342;-68
2021/05/23 01:19:31;;;;;;;2.33;0.93;;;;;;;9.40;100.00;95427.53;1046263;28;20277;-69
2021/05/23 01:20:14;;;;;;;3.47;1.70;;;;;;;9.32;100.00;95420.19;1047433;28;20254;-69
2021/05/23 01:20:48;;;;;;;6.45;1.52;;;;;;;9.35;100.00;95428.31;1043359;28;20033;-68
2021/05/23 01:21:19;;;;;;;1.83;1.00;;;;;;;9.40;100.00;95438.00;1044076;28;20306;-69
2021/05/23 01:21:53;;;;;;;2.35;1.10;;;;;;;9.31;100.00;95429.09;1034578;28;20277;-68
2021/05/23 01:22:34;;;;;;;3.20;1.30;;;;;;;9.39;100.00;95445.09;1035413;28;20257;-67
2021/05/23 01:23:08;;;;;;;3.83;1.10;;;;;;;9.36;100.00;95442.97;1035261;28;20281;-71
2021/05/23 01:23:45;;;;;;;3.55;0.82;;;;;;;9.28;100.00;95433.00;1041945;28;20268;-70
2021/05/23 01:24:26;;;;;;;3.63;1.15;;;;;;;9.35;100.00;95440.63;1041007;28;20347;-71
2021/05/23 01:25:04;;;;;;;;;;;;;;;9.37;100.00;95446.38;1035460;28;20269;-68
2021/05/23 01:25:34;;;;;;;2.83;1.27;;;;;;;9.36;100.00;95450.06;1039263;28;19913;-67
2021/05/23 01:26:06;;;;;;;2.42;1.02;;;;;;;9.36;100.00;95442.97;1038704;28;20322;-67
2021/05/23 01:26:38;;;;;;;2.30;0.98;;;;;;;9.36;100.00;95442.19;1042873;28;20061;-69
2021/05/23 01:27:10;;;;;;;4.18;1.27;;;;;;;9.29;100.00;95441.66;1047581;28;20278;-71
2021/05/23 01:27:47;;;;;;;2.30;1.23;;;;;;;9.34;100.00;95445.06;1039228;28;21000;-69
2021/05/23 01:28:21;;;;;;;2.92;1.08;;;;;;;9.34;100.00;95454.75;1039888;28;20354;-69
2021/05/23 01:28:56;;;;;;;4.40;1.17;;;;;;;9.33;100.00;95461.84;1039287;28;20290;-70
2021/05/23 01:29:27;;;;;;;1.85;0.90;;;;;;;9.29;100.00;95452.13;1035359;28;20328;-72
2021/05/23 01:29:58;;;;;;;7.40;1.50;;;;;;;9.32;100.00;95465.50;1040650;28;20359;-71
2021/05/23 01:30:30;;;;;;;3.53;1.40;;;;;;;9.29;100.00;95454.75;1039887;28;20018;-71
2021/05/23 01:31:00;;;;;;;1.77;0.95;;;;;;;9.28;100.00;95461.03;1043920;28;20032;-71
2021/05/23 01:31:31;;;;;;;11.93;2.25;;;;;;;9.23;100.00;95456.59;1043387;28;20758;-70
2021/05/23 01:32:01;;;;;;;3.72;1.23;;;;;;;9.29;100.00;95459.97;1039459;28;20482;-69
2021/05/23 01:32:32;;;;;;;3.60;1.40;;;;;;;9.29;100.00;95466.03;1043616;28;20784;-70
2021/05/23 01:33:05;;;;;;;2.03;1.20;;;;;;;9.27;100.00;95460.25;1035312;28;20396;-66
2021/05/23 01:33:36;;;;;;;4.70;1.40;;;;;;;9.21;100.00;95450.81;1035956;28;20220;-70
2021/05/23 01:34:07;;;;;;;2.05;1.20;;;;;;;9.26;100.00;95458.69;1035205;28;20272;-67
2021/05/23 01:34:38;;;;;;;3.42;1.48;;;;;;;9.30;100.00;95469.44;1039607;28;20033;-70
2021/05/23 01:35:16;;;;;;;1.15;0.90;;;;;;;9.29;100.00;95468.66;1035893;28;20033;-71
2021/05/23 01:35:50;;;;;;;2.50;1.20;;;;;;;9.22;100.00;95452.38;1038566;28;20096;-71
2021/05/23 01:36:21;;;;;;;1.77;1.23;;;;;;;9.29;100.00;95463.41;1039268;28;20777;-69
2021/05/23 01:36:54;;;;;;;3.67;1.00;;;;;;;9.26;100.00;95469.16;1035289;28;20272;-69
2021/05/23 01:37:25;;;;;;;2.70;1.17;;;;;;;9.21;100.00;95458.66;1033750;28;20629;-72
2021/05/23 01:37:59;;;;;;;2.15;1.02;;;;;;;9.29;100.00;95465.22;1034363;28;20387;-70
2021/05/23 01:38:30;;;;;;;1.63;1.10;;;;;;;9.29;100.00;95467.84;1036175;28;20527;-71
2021/05/23 01:39:00;;;;;;;3.13;1.20;;;;;;;9.27;100.00;95467.31;1032624;28;20262;-69
2021/05/23 01:39:31;;;;;;;2.40;1.08;;;;;;;9.29;100.00;95473.06;1035812;28;20022;-67
2021/05/23 01:40:06;;;;;;;3.80;1.10;;;;;;;9.24;100.00;95470.47;1041950;28;20024;-70
2021/05/23 01:40:36;;;;;;;2.55;1.25;;;;;;;9.31;100.00;95473.59;1042275;28;20020;-67
2021/05/23 01:41:08;;;;;;;4.68;1.20;;;;;;;9.22;100.00;95462.84;1046752;28;20812;-70
2021/05/23 01:41:38;;;;;;;3.17;1.05;;;;;;;9.21;100.00;95472.53;1039439;28;20049;-68
2021/05/23 01:42:09;;;;;;;3.30;1.08;;;;;;;9.20;100.00;95470.19;1040383;28;20318;-69
2021/05/23 01:42:39;;;;;;;3.95;1.20;;;;;;;9.18;100.00;95470.44;1043493;28;20445;-67
2021/05/23 01:43:10;;;;;;;2.15;1.05;;;;;;;9.26;100.00;95478.84;1038051;28;20017;-69
2021/05/23 01:43:40;;;;;;;3.40;1.25;;;;;;;9.23;100.00;95474.91;1032470;28;20315;-69
2021/05/23 01:44:11;;;;;;;1.35;0.80;;;;;;;9.20;100.00;95476.22;1040584;28;20037;-69
2021/05/23 01:44:41;;;;;;;4.63;1.30;;;;;;;9.26;100.00;95484.09;1038164;28;20490;-69
2021/05/23 01:45:13;;;;;;;3.42;1.30;;;;;;;9.20;100.00;95481.44;1038595;28;20074;-70
2021/05/23 01:45:43;;;;;;;2.33;1.00;;;;;;;9.22;100.00;95481.19;1038627;28;20035;-70
2021/05/23 01:46:14;;;;;;;2.80;1.10;;;;;;;9.27;100.00;95493.50;1032123;28;20291;-71
2021/05/23 01:46:44;;;;;;;5.60;0.90;;;;;;;9.27;100.00;95496.13;1038345;28;20045;-70
2021/05/23 01:47:15;;;;;;;6.72;1.58;;;;;;;9.28;100.00;95493.22;1039673;28;20018;-70
2021/05/23 01:47:45;;;;;;;2.67;1.17;;;;;;;9.29;100.00;95500.06;1038092;28;20618;-68
2021/05/23 01:48:16;;;;;;;3.90;1.35;;;;;;;9.19;100.00;95489.56;1038824;28;20060;-69
2021/05/23 01:48:46;;;;;;;4.03;1.20;;;;;;;9.23;100.00;95497.69;1034924;28;20094;-69
2021/05/23 01:49:17;;;;;;;2.28;1.30;;;;;;;9.15;100.00;95484.06;1038837;28;20068;-69
2021/05/23 01:49:47;;;;;;;2.50;1.25;;;;;;;9.26;100.00;95502.41;1034833;28;20041;-70
2021/05/23 01:50:18;;;;;;;4.93;1.30;;;;;;;9.25;100.00;95508.69;1035001;28;20463;-71
2021/05/23 01:50:49;;;;;;;1.73;1.02;;;;;;;9.21;100.00;95501.34;1038293;28;20104;-70
2021/05/23 01:51:20;;;;;;;3.55;1.25;;;;;;;9.22;100.00;95509.97;1035115;28;20025;-70
2021/05/23 01:51:50;;;;;;;2.72;1.10;;;;;;;9.10;100.00;95496.34;1034700;28;20379;-69
2021/05/23 01:52:21;;;;;;;5.72;1.10;;;;;;;9.19;100.00;95513.13;1038662;28;20052;-69
2021/05/23 01:53:02;;;;;;;1.70;1.05;;;;;;;9.18;100.00;95520.19;1038939;28;20118;-69
2021/05/23 01:53:33;;;;;;;1.75;1.00;;;;;;;8.92;100.00;95477.47;1034796;28;20037;-70
2021/05/23 01:54:03;;;;;;;5.60;1.30;;;;;;;8.96;100.00;95504.69;1049654;28;20270;-69
2021/05/23 01:54:34;;;;;;;7.47;1.23;;;;;;;9.02;100.00;95513.34;1039063;28;21006;-69
2021/05/23 01:55:05;;;;;;;4.10;1.42;;;;;;;9.04;100.00;95515.69;1039391;28;20017;-69
2021/05/23 01:55:36;;;;;;;4.53;1.17;;;;;;;8.92;100.00;95515.91;1039491;28;20018;-68
2021/05/23 01:56:06;;;;;;;2.05;1.00;;;;;;;8.86;100.00;95512.50;1037851;28;20018;-71
2021/05/23 01:56:38;;;;;;;4.20;1.40;;;;;;;8.81;100.00;95514.31;1039682;28;20703;-67
2021/05/23 01:57:08;;;;;;;1.83;0.90;;;;;;;8.77;100.00;95518.50;1043134;28;20017;-70
2021/05/23 01:57:39;;;;;;;3.97;1.48;;;;;;;8.72;100.00;95519.28;1034547;28;20276;-67
2021/05/23 01:58:09;;;;;;;3.75;1.13;;;;;;;8.60;100.00;95514.25;1035416;28;20499;-70
2021/05/23 01:58:40;;;;;;;2.67;1.20;;;;;;;8.46;100.00;95497.44;1039346;28;20033;-71
2021/05/23 01:59:10;;;;;;;3.42;1.30;;;;;;;8.59;100.00;95523.13;1047569;28;20016;-69
2021/05/23 01:59:41;;;;;;;3.15;1.15;;;;;;;8.56;100.00;95528.88;1047161;28;20035;-69
2021/05/23 02:00:12;;;;;;;4.28;0.93;;;;;;;8.46;100.00;95520.97;1042906;28;20474;-68
2021/05/23 02:00:48;;;;;;;4.55;1.20;;;;;;;8.45;100.00;95527.22;1043251;28;20118;-69
2021/05/23 02:01:19;;;;;;;1.75;1.02;;;;;;;8.36;100.00;95518.28;1042162;28;20926;-69
2021/05/23 02:01:49;;;;;;;2.63;1.05;;;;;;;8.36;100.00;95524.28;1042905;28;20248;-69
2021/05/23 02:02:20;;;;;;;2.90;1.20;;;;;;;8.31;100.00;95526.09;1043159;28;20716;-68
2021/05/23 02:02:50;;;;;;;2.25;1.13;;;;;;;8.32;100.00;95527.69;1038494;28;20025;-69
2021/05/23 02:03:22;;;;;;;4.00;1.23;;;;;;;8.25;100.00;95523.47;1030983;28;20033;-68
2021/05/23 02:03:54;;;;;;;1.85;1.10;;;;;;;8.20;100.00;95520.81;1038823;28;20472;-69
2021/05/23 02:04:25;;;;;;;4.85;1.15;;;;;;;8.21;100.00;95524.97;1042293;28;20267;-68
2021/05/23 02:04:55;;;;;;;5.97;1.38;;;;;;;8.14;100.00;95519.19;1035056;28;20261;-68
2021/05/23 02:05:25;;;;;;;2.17;0.90;;;;;;;8.15;100.00;95535.66;1043124;28;20021;-69
2021/05/23 02:05:57;;;;;;;3.58;1.10;;;;;;;8.13;100.00;95528.06;1038133;28;20021;-67
2021/05/23 02:06:31;;;;;;;3.97;1.40;;;;;;;8.08;100.00;95527.25;1034867;28;20400;-69
2021/05/23 02:07:01;;;;;;;2.60;1.10;;;;;;;8.05;100.00;95520.72;1038814;28;20272;-69
2021/05/23 02:07:32;;;;;;;4.93;1.27;;;;;;;8.06;100.00;95529.34;1034804;28;20133;-69
2021/05/23 02:08:03;;;;;;;2.17;1.05;;;;;;;7.96;100.00;95519.59;1041306;28;20044;-70
2021/05/23 02:08:34;;;;;;;2.58;1.15;;;;;;;8.00;100.00;95536.34;1038711;28;20040;-69
2021/05/23 02:09:05;;;;;;;2.97;1.45;;;;;;;7.72;100.00;95493.06;1043010;28;20317;-69
2021/05/23 02:09:36;;;;;;;2.78;1.45;;;;;;;7.96;100.00;95537.91;1043097;28;20482;-69
2021/05/23 02:10:11;;;;;;;2.42;1.08;;;;;;;7.95;100.00;95541.56;1042983;28;20040;-68
2021/05/23 02:10:41;;;;;;;2.00;1.13;;;;;;;7.90;100.00;95542.28;1041602;28;20025;-68
2021/05/23 02:11:13;;;;;;;4.90;1.17;;;;;;;7.89;100.00;95539.94;1038848;28;20268;-65
2021/05/23 02:11:43;;;;;;;1.65;1.00;;;;;;;7.86;100.00;95543.81;1035045;28;20029;-68
2021/05/23 02:12:14;;;;;;;1.15;1.00;;;;;;;7.85;100.00;95544.88;1046361;28;20281;-68
2021/05/23 02:12:45;;;;;;;5.38;1.05;;;;;;;7.77;100.00;95533.03;1043087;28;20108;-68
2021/05/23 02:13:16;;;;;;;4.22;1.00;;;;;;;7.78;100.00;95541.69;1034940;28;20018;-70
2021/05/23 02:13:49;;;;;;;2.72;1.00;;;;;;;7.75;100.00;95539.56;1030588;28;20348;-68
2021/05/23 02:14:20;;;;;;;3.15;1.30;;;;;;;7.68;100.00;95539.78;1038250;28;20017;-68
2021/05/23 02:14:50;;;;;;;3.92;1.05;;;;;;;7.68;100.00;95545.00;1038826;28;20264;-69
2021/05/23 02:15:21;;;;;;;3.53;1.35;;;;;;;7.67;100.00;95543.41;1034325;28;20498;-70
2021/05/23 02:15:52;;;;;;;1.90;1.27;;;;;;;7.66;100.00;95548.88;1036690;28;20038;-68
2021/05/23 02:16:22;;;;;;;3.20;1.40;;;;;;;7.64;100.00;95556.97;1042779;28;20028;-68
2021/05/23 02:16:56;;;;;;;6.53;1.58;;;;;;;7.59;100.00;95551.69;1042580;28;20103;-72
2021/05/23 02:17:26;;;;;;;3.33;1.23;;;;;;;7.57;100.00;95551.94;1034626;28;20030;-68
2021/05/23 02:17:57;;;;;;;2.83;1.20;;;;;;;7.57;100.00;95553.75;1038789;28;20536;-69
2021/05/23 02:18:29;;;;;;;5.20;1.85;;;;;;;7.58;100.00;95552.75;1039308;28;20029;-69
2021/05/23 02:19:00;;;;;;;4.28;1.65;;;;;;;7.58;100.00;95552.75;1039428;28;20041;-68
2021/05/23 02:19:31;;;;;;;4.22;1.58;;;;;;;7.59;100.00;95554.31;1038752;28;20355;-69
2021/05/23 02:20:04;;;;;;;4.97;1.73;;;;;;;7.52;100.00;95545.91;1040016;28;20031;-69
2021/05/23 02:20:34;;;;;;;2.90;1.70;;;;;;;7.54;100.00;95549.84;1040784;28;20033;-69
2021/05/23 02:21:05;;;;;;;3.30;1.55;;;;;;;7.46;100.00;95546.88;1034791;28;20653;-69
2021/05/23 02:21:35;;;;;;;3.70;1.52;;;;;;;7.52;100.00;95558.94;1034628;28;20372;-69
2021/05/23 02:22:08;;;;;;;4.40;1.42;;;;;;;7.47;100.00;95558.88;1046832;28;20445;-69
2021/05/23 02:22:44;;;;;;;3.03;1.55;;;;;;;7.50;100.00;95553.19;1031031;28;20026;-69
2021/05/23 02:23:21;;;;;;;4.63;1.50;;;;;;;7.39;100.00;95551.53;1034852;28;20336;-68
2021/05/23 02:23:53;;;;;;;6.18;2.90;;;;;;;7.43;100.00;95563.81;1038913;28;20252;-69
2021/05/23 02:24:23;;;;;;;3.58;1.75;;;;;;;7.43;100.00;95569.03;1030795;28;20293;-69
2021/05/23 02:24:54;;;;;;;2.65;1.65;;;;;;;7.44;100.00;95562.78;1031932;28;20651;-68
2021/05/23 02:25:26;;;;;;;2.45;1.60;;;;;;;7.38;100.00;95561.19;1039158;28;20030;-69
2021/05/23 02:25:56;;;;;;;2.03;1.35;;;;;;;7.43;100.00;95568.25;1038638;28;20035;-69
2021/05/23 02:26:27;;;;;;;3.08;1.30;;;;;;;7.38;100.00;95566.41;1043016;28;20303;-68
2021/05/23 02:26:57;;;;;;;4.70;1.63;;;;;;;7.38;100.00;95570.81;1046906;28;20095;-68
2021/05/23 02:27:28;;;;;;;4.30;1.70;;;;;;;7.30;100.00;95562.38;1047310;28;20040;-68
2021/05/23 02:28:01;;;;;;;3.20;1.65;;;;;;;7.35;100.00;95577.31;1039059;28;20051;-69
2021/05/23 02:28:32;;;;;;;4.07;1.60;;;;;;;7.37;100.00;95575.25;1041378;28;20833;-68
2021/05/23 02:29:02;;;;;;;3.85;1.80;;;;;;;7.29;100.00;95555.59;1034780;28;20265;-69
2021/05/23 02:29:33;;;;;;;5.13;2.30;;;;;;;7.35;100.00;95571.31;1043101;28;20167;-70
2021/05/23 02:30:08;;;;;;;3.80;1.50;;;;;;;7.33;100.00;95572.34;1046972;28;20028;-70
2021/05/23 02:30:44;;;;;;;7.40;1.95;;;;;;;7.32;100.00;95570.78;1047337;28;20033;-69
2021/05/23 02:31:14;;;;;;;2.28;1.25;;;;;;;7.33;100.00;95564.50;1043087;28;20957;-68
2021/05/23 02:31:45;;;;;;;2.97;1.40;;;;;;;7.35;100.00;95568.72;1043096;28;20259;-70